sensor_id;sensor_type;location;lat;lon;timestamp;P1;durP1;ratioP1;P2;durP2;ratioP2
61391;SDS011;47261;52.892;5.738;2023-08-07T00:00:22;9.70;;;1.60;;
61391;SDS011;47261;52.892;5.738;2023-08-07T00:02:48;7.28;;;1.20;;
61391;SDS011;47261;52.892;5.738;2023-08-07T00:05:14;11.23;;;1.70;;
61391;SDS011;47261;52.892;5.738;2023-08-07T00:07:41;4.85;;;1.05;;
61391;SDS011;47261;52.892;5.738;2023-08-07T00:10:07;12.23;;;1.63;;
61391;SDS011;47261;52.892;5.738;2023-08-07T00:12:34;6.63;;;1.40;;
61391;SDS011;47261;52.892;5.738;2023-08-07T00:14:59;8.53;;;1.50;;
61391;SDS011;47261;52.892;5.738;2023-08-07T00:17:26;11.70;;;1.60;;
61391;SDS011;47261;52.892;5.738;2023-08-07T00:19:51;8.73;;;1.17;;
61391;SDS011;47261;52.892;5.738;2023-08-07T00:22:17;8.77;;;1.50;;
61391;SDS011;47261;52.892;5.738;2023-08-07T00:24:43;19.67;;;2.03;;
61391;SDS011;47261;52.892;5.738;2023-08-07T00:27:08;8.70;;;1.42;;
61391;SDS011;47261;52.892;5.738;2023-08-07T00:29:37;11.68;;;1.30;;
61391;SDS011;47261;52.892;5.738;2023-08-07T00:32:03;11.27;;;1.50;;
61391;SDS011;47261;52.892;5.738;2023-08-07T00:34:29;12.35;;;1.00;;
61391;SDS011;47261;52.892;5.738;2023-08-07T00:36:55;9.77;;;1.38;;
61391;SDS011;47261;52.892;5.738;2023-08-07T00:39:21;11.80;;;1.10;;
61391;SDS011;47261;52.892;5.738;2023-08-07T00:41:46;9.37;;;1.13;;
61391;SDS011;47261;52.892;5.738;2023-08-07T00:44:12;10.18;;;1.50;;
61391;SDS011;47261;52.892;5.738;2023-08-07T00:46:38;8.90;;;1.52;;
61391;SDS011;47261;52.892;5.738;2023-08-07T00:49:05;9.17;;;0.90;;
61391;SDS011;47261;52.892;5.738;2023-08-07T00:51:32;12.73;;;1.02;;
61391;SDS011;47261;52.892;5.738;2023-08-07T00:53:58;13.20;;;1.42;;
61391;SDS011;47261;52.892;5.738;2023-08-07T00:56:25;10.07;;;0.80;;
61391;SDS011;47261;52.892;5.738;2023-08-07T00:58:52;10.82;;;1.17;;
61391;SDS011;47261;52.892;5.738;2023-08-07T01:01:18;14.03;;;1.00;;
61391;SDS011;47261;52.892;5.738;2023-08-07T01:03:44;8.68;;;1.10;;
61391;SDS011;47261;52.892;5.738;2023-08-07T01:06:10;11.93;;;1.30;;
61391;SDS011;47261;52.892;5.738;2023-08-07T01:08:35;17.53;;;1.77;;
61391;SDS011;47261;52.892;5.738;2023-08-07T01:13:50;7.97;;;0.70;;
61391;SDS011;47261;52.892;5.738;2023-08-07T01:16:18;6.20;;;0.50;;
61391;SDS011;47261;52.892;5.738;2023-08-07T01:18:53;8.32;;;1.08;;
61391;SDS011;47261;52.892;5.738;2023-08-07T01:21:21;9.77;;;1.10;;
61391;SDS011;47261;52.892;5.738;2023-08-07T01:23:47;7.47;;;0.73;;
61391;SDS011;47261;52.892;5.738;2023-08-07T01:26:15;8.63;;;1.10;;
61391;SDS011;47261;52.892;5.738;2023-08-07T01:28:49;10.40;;;1.33;;
61391;SDS011;47261;52.892;5.738;2023-08-07T01:31:31;10.07;;;0.93;;
61391;SDS011;47261;52.892;5.738;2023-08-07T01:34:02;14.02;;;1.30;;
61391;SDS011;47261;52.892;5.738;2023-08-07T01:36:30;11.52;;;1.40;;
61391;SDS011;47261;52.892;5.738;2023-08-07T01:38:59;7.37;;;1.30;;
61391;SDS011;47261;52.892;5.738;2023-08-07T01:41:26;12.07;;;1.17;;
61391;SDS011;47261;52.892;5.738;2023-08-07T01:43:53;6.22;;;1.00;;
61391;SDS011;47261;52.892;5.738;2023-08-07T01:46:19;11.00;;;1.42;;
61391;SDS011;47261;52.892;5.738;2023-08-07T01:48:45;6.23;;;1.07;;
61391;SDS011;47261;52.892;5.738;2023-08-07T01:51:11;15.95;;;1.83;;
61391;SDS011;47261;52.892;5.738;2023-08-07T01:53:37;11.77;;;1.30;;
61391;SDS011;47261;52.892;5.738;2023-08-07T01:56:02;11.15;;;1.08;;
61391;SDS011;47261;52.892;5.738;2023-08-07T01:58:28;13.47;;;1.97;;
61391;SDS011;47261;52.892;5.738;2023-08-07T02:00:54;10.38;;;2.08;;
61391;SDS011;47261;52.892;5.738;2023-08-07T02:03:20;15.40;;;1.80;;
61391;SDS011;47261;52.892;5.738;2023-08-07T02:05:46;13.35;;;1.60;;
61391;SDS011;47261;52.892;5.738;2023-08-07T02:08:12;14.35;;;1.85;;
61391;SDS011;47261;52.892;5.738;2023-08-07T02:10:38;15.63;;;2.38;;
61391;SDS011;47261;52.892;5.738;2023-08-07T02:13:03;15.23;;;2.10;;
61391;SDS011;47261;52.892;5.738;2023-08-07T02:15:29;18.63;;;2.40;;
61391;SDS011;47261;52.892;5.738;2023-08-07T02:17:55;16.65;;;2.60;;
61391;SDS011;47261;52.892;5.738;2023-08-07T02:20:20;15.77;;;1.77;;
61391;SDS011;47261;52.892;5.738;2023-08-07T02:22:46;15.40;;;2.60;;
61391;SDS011;47261;52.892;5.738;2023-08-07T02:25:12;15.47;;;2.43;;
61391;SDS011;47261;52.892;5.738;2023-08-07T02:27:38;17.75;;;2.13;;
61391;SDS011;47261;52.892;5.738;2023-08-07T02:30:04;19.23;;;2.17;;
61391;SDS011;47261;52.892;5.738;2023-08-07T02:32:30;21.60;;;2.72;;
61391;SDS011;47261;52.892;5.738;2023-08-07T02:34:56;20.10;;;2.30;;
61391;SDS011;47261;52.892;5.738;2023-08-07T02:37:21;17.17;;;2.30;;
61391;SDS011;47261;52.892;5.738;2023-08-07T02:39:47;23.77;;;3.47;;
61391;SDS011;47261;52.892;5.738;2023-08-07T02:42:13;16.67;;;2.33;;
61391;SDS011;47261;52.892;5.738;2023-08-07T02:44:38;15.77;;;2.53;;
61391;SDS011;47261;52.892;5.738;2023-08-07T02:47:04;15.57;;;1.83;;
61391;SDS011;47261;52.892;5.738;2023-08-07T02:49:30;18.33;;;2.53;;
61391;SDS011;47261;52.892;5.738;2023-08-07T02:51:56;17.37;;;2.30;;
61391;SDS011;47261;52.892;5.738;2023-08-07T02:54:22;15.73;;;2.60;;
61391;SDS011;47261;52.892;5.738;2023-08-07T02:56:47;18.60;;;2.70;;
61391;SDS011;47261;52.892;5.738;2023-08-07T02:59:14;7.35;;;1.48;;
61391;SDS011;47261;52.892;5.738;2023-08-07T03:01:40;10.25;;;1.02;;
61391;SDS011;47261;52.892;5.738;2023-08-07T03:04:05;6.73;;;1.07;;
61391;SDS011;47261;52.892;5.738;2023-08-07T03:06:31;6.38;;;1.27;;
61391;SDS011;47261;52.892;5.738;2023-08-07T03:08:57;9.03;;;1.50;;
61391;SDS011;47261;52.892;5.738;2023-08-07T03:11:22;6.00;;;1.15;;
61391;SDS011;47261;52.892;5.738;2023-08-07T03:13:48;7.13;;;1.70;;
61391;SDS011;47261;52.892;5.738;2023-08-07T03:16:14;9.63;;;1.63;;
61391;SDS011;47261;52.892;5.738;2023-08-07T03:18:40;10.90;;;1.60;;
61391;SDS011;47261;52.892;5.738;2023-08-07T03:21:06;12.07;;;1.60;;
61391;SDS011;47261;52.892;5.738;2023-08-07T03:23:31;14.32;;;2.00;;
61391;SDS011;47261;52.892;5.738;2023-08-07T03:26:07;18.73;;;3.13;;
61391;SDS011;47261;52.892;5.738;2023-08-07T03:28:35;16.73;;;2.03;;
61391;SDS011;47261;52.892;5.738;2023-08-07T03:31:01;14.90;;;2.53;;
61391;SDS011;47261;52.892;5.738;2023-08-07T03:33:27;18.37;;;2.50;;
61391;SDS011;47261;52.892;5.738;2023-08-07T03:35:53;30.15;;;2.85;;
61391;SDS011;47261;52.892;5.738;2023-08-07T03:38:19;14.35;;;2.30;;
61391;SDS011;47261;52.892;5.738;2023-08-07T03:40:44;18.03;;;2.47;;
61391;SDS011;47261;52.892;5.738;2023-08-07T03:43:10;14.60;;;2.28;;
61391;SDS011;47261;52.892;5.738;2023-08-07T03:45:36;20.13;;;2.80;;
61391;SDS011;47261;52.892;5.738;2023-08-07T03:48:02;15.57;;;2.53;;
61391;SDS011;47261;52.892;5.738;2023-08-07T03:50:27;21.03;;;2.80;;
61391;SDS011;47261;52.892;5.738;2023-08-07T03:52:55;13.85;;;2.33;;
61391;SDS011;47261;52.892;5.738;2023-08-07T03:55:20;14.43;;;1.85;;
61391;SDS011;47261;52.892;5.738;2023-08-07T03:57:46;13.80;;;2.30;;
61391;SDS011;47261;52.892;5.738;2023-08-07T04:00:12;15.47;;;3.03;;
61391;SDS011;47261;52.892;5.738;2023-08-07T04:02:38;18.33;;;2.80;;
61391;SDS011;47261;52.892;5.738;2023-08-07T04:05:04;17.30;;;2.88;;
61391;SDS011;47261;52.892;5.738;2023-08-07T04:07:30;14.80;;;2.60;;
61391;SDS011;47261;52.892;5.738;2023-08-07T04:09:55;14.20;;;2.22;;
61391;SDS011;47261;52.892;5.738;2023-08-07T04:12:21;15.77;;;2.27;;
61391;SDS011;47261;52.892;5.738;2023-08-07T04:14:47;15.35;;;2.45;;
61391;SDS011;47261;52.892;5.738;2023-08-07T04:17:12;19.70;;;2.27;;
61391;SDS011;47261;52.892;5.738;2023-08-07T04:19:38;13.38;;;2.63;;
61391;SDS011;47261;52.892;5.738;2023-08-07T04:22:04;21.67;;;2.70;;
61391;SDS011;47261;52.892;5.738;2023-08-07T04:24:29;18.75;;;2.35;;
61391;SDS011;47261;52.892;5.738;2023-08-07T04:26:55;13.97;;;2.30;;
61391;SDS011;47261;52.892;5.738;2023-08-07T04:29:21;13.65;;;2.50;;
61391;SDS011;47261;52.892;5.738;2023-08-07T04:31:46;18.83;;;2.77;;
61391;SDS011;47261;52.892;5.738;2023-08-07T04:34:12;13.93;;;2.20;;
61391;SDS011;47261;52.892;5.738;2023-08-07T04:36:38;12.57;;;1.70;;
61391;SDS011;47261;52.892;5.738;2023-08-07T04:39:04;16.25;;;2.38;;
61391;SDS011;47261;52.892;5.738;2023-08-07T04:41:29;14.27;;;2.33;;
61391;SDS011;47261;52.892;5.738;2023-08-07T04:43:55;10.68;;;1.92;;
61391;SDS011;47261;52.892;5.738;2023-08-07T04:46:21;15.63;;;2.40;;
61391;SDS011;47261;52.892;5.738;2023-08-07T04:48:46;10.17;;;1.90;;
61391;SDS011;47261;52.892;5.738;2023-08-07T04:51:13;15.80;;;2.03;;
61391;SDS011;47261;52.892;5.738;2023-08-07T04:53:40;12.07;;;1.98;;
61391;SDS011;47261;52.892;5.738;2023-08-07T04:56:06;11.70;;;1.65;;
61391;SDS011;47261;52.892;5.738;2023-08-07T04:58:31;18.20;;;2.43;;
61391;SDS011;47261;52.892;5.738;2023-08-07T05:00:57;15.18;;;2.50;;
61391;SDS011;47261;52.892;5.738;2023-08-07T05:03:24;11.90;;;2.00;;
61391;SDS011;47261;52.892;5.738;2023-08-07T05:05:50;20.60;;;2.85;;
61391;SDS011;47261;52.892;5.738;2023-08-07T05:08:16;14.00;;;2.63;;
61391;SDS011;47261;52.892;5.738;2023-08-07T05:10:42;17.80;;;2.73;;
61391;SDS011;47261;52.892;5.738;2023-08-07T05:13:08;12.80;;;2.03;;
61391;SDS011;47261;52.892;5.738;2023-08-07T05:15:33;18.13;;;3.03;;
61391;SDS011;47261;52.892;5.738;2023-08-07T05:17:59;16.33;;;2.70;;
61391;SDS011;47261;52.892;5.738;2023-08-07T05:20:25;17.60;;;2.50;;
61391;SDS011;47261;52.892;5.738;2023-08-07T05:22:50;15.83;;;2.17;;
61391;SDS011;47261;52.892;5.738;2023-08-07T05:25:16;18.55;;;2.85;;
61391;SDS011;47261;52.892;5.738;2023-08-07T05:27:43;17.40;;;2.23;;
61391;SDS011;47261;52.892;5.738;2023-08-07T05:30:12;15.98;;;2.80;;
61391;SDS011;47261;52.892;5.738;2023-08-07T05:32:38;17.60;;;2.42;;
61391;SDS011;47261;52.892;5.738;2023-08-07T05:35:04;10.10;;;2.20;;
61391;SDS011;47261;52.892;5.738;2023-08-07T05:37:31;20.80;;;2.90;;
61391;SDS011;47261;52.892;5.738;2023-08-07T05:39:58;12.40;;;2.03;;
61391;SDS011;47261;52.892;5.738;2023-08-07T05:42:23;18.00;;;2.50;;
61391;SDS011;47261;52.892;5.738;2023-08-07T05:44:49;17.33;;;2.30;;
61391;SDS011;47261;52.892;5.738;2023-08-07T05:47:14;11.17;;;2.13;;
61391;SDS011;47261;52.892;5.738;2023-08-07T05:49:40;14.23;;;2.20;;
61391;SDS011;47261;52.892;5.738;2023-08-07T05:52:06;18.90;;;2.63;;
61391;SDS011;47261;52.892;5.738;2023-08-07T05:54:32;17.98;;;2.20;;
61391;SDS011;47261;52.892;5.738;2023-08-07T05:56:58;19.00;;;3.00;;
61391;SDS011;47261;52.892;5.738;2023-08-07T05:59:23;16.00;;;2.58;;
61391;SDS011;47261;52.892;5.738;2023-08-07T06:01:49;11.10;;;2.53;;
61391;SDS011;47261;52.892;5.738;2023-08-07T06:04:16;15.85;;;2.70;;
61391;SDS011;47261;52.892;5.738;2023-08-07T06:06:41;15.13;;;2.80;;
61391;SDS011;47261;52.892;5.738;2023-08-07T06:09:07;16.85;;;2.17;;
61391;SDS011;47261;52.892;5.738;2023-08-07T06:11:33;13.23;;;2.17;;
61391;SDS011;47261;52.892;5.738;2023-08-07T06:13:59;10.80;;;2.00;;
61391;SDS011;47261;52.892;5.738;2023-08-07T06:16:25;13.02;;;1.77;;
61391;SDS011;47261;52.892;5.738;2023-08-07T06:18:51;12.52;;;1.83;;
61391;SDS011;47261;52.892;5.738;2023-08-07T06:21:17;11.83;;;1.77;;
61391;SDS011;47261;52.892;5.738;2023-08-07T06:23:42;15.80;;;2.25;;
61391;SDS011;47261;52.892;5.738;2023-08-07T06:26:08;10.80;;;2.00;;
61391;SDS011;47261;52.892;5.738;2023-08-07T06:28:34;15.68;;;1.92;;
61391;SDS011;47261;52.892;5.738;2023-08-07T06:31:05;8.50;;;2.03;;
61391;SDS011;47261;52.892;5.738;2023-08-07T06:33:35;17.63;;;2.23;;
61391;SDS011;47261;52.892;5.738;2023-08-07T06:36:01;12.55;;;2.20;;
61391;SDS011;47261;52.892;5.738;2023-08-07T06:38:27;10.25;;;1.83;;
61391;SDS011;47261;52.892;5.738;2023-08-07T06:40:53;11.10;;;2.33;;
61391;SDS011;47261;52.892;5.738;2023-08-07T06:43:19;9.30;;;1.73;;
61391;SDS011;47261;52.892;5.738;2023-08-07T06:45:51;10.35;;;1.95;;
61391;SDS011;47261;52.892;5.738;2023-08-07T06:48:17;12.63;;;2.50;;
61391;SDS011;47261;52.892;5.738;2023-08-07T06:50:43;7.93;;;2.15;;
61391;SDS011;47261;52.892;5.738;2023-08-07T06:53:09;10.15;;;1.95;;
61391;SDS011;47261;52.892;5.738;2023-08-07T06:55:35;12.53;;;1.93;;
61391;SDS011;47261;52.892;5.738;2023-08-07T06:58:00;11.18;;;1.63;;
61391;SDS011;47261;52.892;5.738;2023-08-07T07:00:26;9.47;;;1.60;;
61391;SDS011;47261;52.892;5.738;2023-08-07T07:02:52;12.63;;;2.08;;
61391;SDS011;47261;52.892;5.738;2023-08-07T07:05:18;12.50;;;1.93;;
61391;SDS011;47261;52.892;5.738;2023-08-07T07:07:43;10.00;;;2.17;;
61391;SDS011;47261;52.892;5.738;2023-08-07T07:10:09;9.67;;;1.77;;
61391;SDS011;47261;52.892;5.738;2023-08-07T07:12:35;11.57;;;2.22;;
61391;SDS011;47261;52.892;5.738;2023-08-07T07:15:01;12.18;;;2.30;;
61391;SDS011;47261;52.892;5.738;2023-08-07T07:17:27;17.85;;;2.40;;
61391;SDS011;47261;52.892;5.738;2023-08-07T07:19:53;11.30;;;2.50;;
61391;SDS011;47261;52.892;5.738;2023-08-07T07:22:22;17.52;;;2.30;;
61391;SDS011;47261;52.892;5.738;2023-08-07T07:24:48;18.05;;;2.20;;
61391;SDS011;47261;52.892;5.738;2023-08-07T07:27:13;12.60;;;1.90;;
61391;SDS011;47261;52.892;5.738;2023-08-07T07:29:39;17.25;;;2.35;;
61391;SDS011;47261;52.892;5.738;2023-08-07T07:32:05;14.93;;;2.73;;
61391;SDS011;47261;52.892;5.738;2023-08-07T07:34:31;12.80;;;2.33;;
61391;SDS011;47261;52.892;5.738;2023-08-07T07:36:58;8.98;;;1.60;;
61391;SDS011;47261;52.892;5.738;2023-08-07T07:39:23;12.23;;;1.53;;
61391;SDS011;47261;52.892;5.738;2023-08-07T07:41:49;12.13;;;1.90;;
61391;SDS011;47261;52.892;5.738;2023-08-07T07:44:15;15.30;;;2.70;;
61391;SDS011;47261;52.892;5.738;2023-08-07T07:46:40;15.73;;;2.10;;
61391;SDS011;47261;52.892;5.738;2023-08-07T07:49:06;12.88;;;2.33;;
61391;SDS011;47261;52.892;5.738;2023-08-07T07:51:31;10.70;;;1.93;;
61391;SDS011;47261;52.892;5.738;2023-08-07T07:53:58;15.50;;;2.20;;
61391;SDS011;47261;52.892;5.738;2023-08-07T07:56:24;11.60;;;2.20;;
61391;SDS011;47261;52.892;5.738;2023-08-07T07:58:49;13.55;;;1.90;;
61391;SDS011;47261;52.892;5.738;2023-08-07T08:01:15;7.60;;;1.80;;
61391;SDS011;47261;52.892;5.738;2023-08-07T08:03:40;4.40;;;1.08;;
61391;SDS011;47261;52.892;5.738;2023-08-07T08:06:08;7.50;;;1.30;;
61391;SDS011;47261;52.892;5.738;2023-08-07T08:08:34;9.73;;;1.50;;
61391;SDS011;47261;52.892;5.738;2023-08-07T08:10:59;8.20;;;1.37;;
61391;SDS011;47261;52.892;5.738;2023-08-07T08:13:25;10.52;;;1.90;;
61391;SDS011;47261;52.892;5.738;2023-08-07T08:15:51;6.43;;;1.20;;
61391;SDS011;47261;52.892;5.738;2023-08-07T08:18:16;11.30;;;1.25;;
61391;SDS011;47261;52.892;5.738;2023-08-07T08:20:42;6.73;;;1.30;;
61391;SDS011;47261;52.892;5.738;2023-08-07T08:23:08;9.32;;;1.33;;
61391;SDS011;47261;52.892;5.738;2023-08-07T08:25:33;6.63;;;1.10;;
61391;SDS011;47261;52.892;5.738;2023-08-07T08:27:59;10.37;;;1.73;;
61391;SDS011;47261;52.892;5.738;2023-08-07T08:30:25;12.43;;;1.42;;
61391;SDS011;47261;52.892;5.738;2023-08-07T08:32:51;7.70;;;1.10;;
61391;SDS011;47261;52.892;5.738;2023-08-07T08:35:17;14.27;;;1.20;;
61391;SDS011;47261;52.892;5.738;2023-08-07T08:37:43;7.75;;;2.00;;
61391;SDS011;47261;52.892;5.738;2023-08-07T08:40:09;6.22;;;1.17;;
61391;SDS011;47261;52.892;5.738;2023-08-07T08:42:41;6.28;;;1.20;;
61391;SDS011;47261;52.892;5.738;2023-08-07T08:45:10;7.77;;;1.10;;
61391;SDS011;47261;52.892;5.738;2023-08-07T08:47:38;4.47;;;1.13;;
61391;SDS011;47261;52.892;5.738;2023-08-07T08:50:09;5.43;;;1.27;;
61391;SDS011;47261;52.892;5.738;2023-08-07T08:52:37;12.50;;;1.27;;
61391;SDS011;47261;52.892;5.738;2023-08-07T08:55:10;10.13;;;1.70;;
61391;SDS011;47261;52.892;5.738;2023-08-07T08:57:37;6.63;;;1.50;;
61391;SDS011;47261;52.892;5.738;2023-08-07T09:00:05;4.40;;;1.08;;
61391;SDS011;47261;52.892;5.738;2023-08-07T09:02:44;7.88;;;1.42;;
61391;SDS011;47261;52.892;5.738;2023-08-07T09:05:10;6.25;;;1.15;;
61391;SDS011;47261;52.892;5.738;2023-08-07T09:07:36;8.47;;;1.60;;
61391;SDS011;47261;52.892;5.738;2023-08-07T09:10:02;8.15;;;0.93;;
61391;SDS011;47261;52.892;5.738;2023-08-07T09:12:29;8.25;;;1.20;;
61391;SDS011;47261;52.892;5.738;2023-08-07T09:14:57;5.68;;;1.15;;
61391;SDS011;47261;52.892;5.738;2023-08-07T09:17:23;6.83;;;1.60;;
61391;SDS011;47261;52.892;5.738;2023-08-07T09:19:52;7.93;;;0.85;;
61391;SDS011;47261;52.892;5.738;2023-08-07T09:22:18;5.75;;;1.23;;
61391;SDS011;47261;52.892;5.738;2023-08-07T09:24:45;8.00;;;1.30;;
61391;SDS011;47261;52.892;5.738;2023-08-07T09:27:11;10.75;;;1.50;;
61391;SDS011;47261;52.892;5.738;2023-08-07T09:29:39;6.60;;;1.30;;
61391;SDS011;47261;52.892;5.738;2023-08-07T09:32:11;7.95;;;1.70;;
61391;SDS011;47261;52.892;5.738;2023-08-07T09:34:41;13.10;;;2.17;;
61391;SDS011;47261;52.892;5.738;2023-08-07T09:37:10;12.32;;;1.75;;
61391;SDS011;47261;52.892;5.738;2023-08-07T09:39:37;9.07;;;1.20;;
61391;SDS011;47261;52.892;5.738;2023-08-07T09:42:03;6.60;;;1.83;;
61391;SDS011;47261;52.892;5.738;2023-08-07T09:44:36;8.82;;;1.05;;
61391;SDS011;47261;52.892;5.738;2023-08-07T09:47:11;8.90;;;1.67;;
61391;SDS011;47261;52.892;5.738;2023-08-07T09:49:38;7.20;;;1.02;;
61391;SDS011;47261;52.892;5.738;2023-08-07T09:52:05;6.30;;;1.00;;
61391;SDS011;47261;52.892;5.738;2023-08-07T09:54:32;5.72;;;1.17;;
61391;SDS011;47261;52.892;5.738;2023-08-07T09:56:59;9.50;;;1.48;;
61391;SDS011;47261;52.892;5.738;2023-08-07T09:59:26;6.28;;;1.20;;
61391;SDS011;47261;52.892;5.738;2023-08-07T10:01:53;10.75;;;1.77;;
61391;SDS011;47261;52.892;5.738;2023-08-07T10:04:19;5.73;;;1.00;;
61391;SDS011;47261;52.892;5.738;2023-08-07T10:06:49;6.93;;;1.02;;
61391;SDS011;47261;52.892;5.738;2023-08-07T10:09:16;7.25;;;1.00;;
61391;SDS011;47261;52.892;5.738;2023-08-07T10:11:41;6.67;;;1.40;;
61391;SDS011;47261;52.892;5.738;2023-08-07T10:14:10;20.10;;;2.05;;
61391;SDS011;47261;52.892;5.738;2023-08-07T10:16:39;9.02;;;1.60;;
61391;SDS011;47261;52.892;5.738;2023-08-07T10:19:06;8.83;;;1.57;;
61391;SDS011;47261;52.892;5.738;2023-08-07T10:21:32;4.93;;;0.80;;
61391;SDS011;47261;52.892;5.738;2023-08-07T10:24:00;16.30;;;1.35;;
61391;SDS011;47261;52.892;5.738;2023-08-07T10:26:29;11.40;;;1.30;;
61391;SDS011;47261;52.892;5.738;2023-08-07T10:28:57;7.15;;;1.30;;
61391;SDS011;47261;52.892;5.738;2023-08-07T10:31:26;8.07;;;1.50;;
61391;SDS011;47261;52.892;5.738;2023-08-07T10:33:53;8.73;;;1.40;;
61391;SDS011;47261;52.892;5.738;2023-08-07T10:36:18;8.50;;;1.00;;
61391;SDS011;47261;52.892;5.738;2023-08-07T10:38:44;5.67;;;0.87;;
61391;SDS011;47261;52.892;5.738;2023-08-07T10:41:14;10.77;;;1.45;;
61391;SDS011;47261;52.892;5.738;2023-08-07T10:43:40;4.85;;;1.10;;
61391;SDS011;47261;52.892;5.738;2023-08-07T10:46:11;6.68;;;0.95;;
61391;SDS011;47261;52.892;5.738;2023-08-07T10:48:41;11.38;;;1.60;;
61391;SDS011;47261;52.892;5.738;2023-08-07T10:51:09;8.87;;;0.97;;
61391;SDS011;47261;52.892;5.738;2023-08-07T10:53:44;7.82;;;1.30;;
61391;SDS011;47261;52.892;5.738;2023-08-07T10:56:33;9.30;;;1.08;;
61391;SDS011;47261;52.892;5.738;2023-08-07T10:59:06;5.70;;;1.10;;
61391;SDS011;47261;52.892;5.738;2023-08-07T11:01:42;8.85;;;1.27;;
61391;SDS011;47261;52.892;5.738;2023-08-07T11:06:36;10.57;;;1.48;;
61391;SDS011;47261;52.892;5.738;2023-08-07T11:09:04;5.57;;;1.30;;
61391;SDS011;47261;52.892;5.738;2023-08-07T11:11:37;4.35;;;1.20;;
61391;SDS011;47261;52.892;5.738;2023-08-07T11:14:08;6.18;;;1.00;;
61391;SDS011;47261;52.892;5.738;2023-08-07T11:16:35;9.50;;;1.13;;
61391;SDS011;47261;52.892;5.738;2023-08-07T11:19:01;6.07;;;1.02;;
61391;SDS011;47261;52.892;5.738;2023-08-07T11:21:28;4.07;;;0.80;;
61391;SDS011;47261;52.892;5.738;2023-08-07T11:23:56;8.93;;;1.70;;
61391;SDS011;47261;52.892;5.738;2023-08-07T11:26:21;9.83;;;1.53;;
61391;SDS011;47261;52.892;5.738;2023-08-07T11:28:49;5.03;;;1.17;;
61391;SDS011;47261;52.892;5.738;2023-08-07T11:31:15;7.78;;;1.45;;
61391;SDS011;47261;52.892;5.738;2023-08-07T11:33:46;4.50;;;1.27;;
61391;SDS011;47261;52.892;5.738;2023-08-07T11:36:13;5.18;;;0.70;;
61391;SDS011;47261;52.892;5.738;2023-08-07T11:38:42;4.70;;;0.80;;
61391;SDS011;47261;52.892;5.738;2023-08-07T11:41:09;4.03;;;0.90;;
61391;SDS011;47261;52.892;5.738;2023-08-07T11:43:36;9.85;;;1.40;;
61391;SDS011;47261;52.892;5.738;2023-08-07T11:46:03;4.10;;;1.00;;
61391;SDS011;47261;52.892;5.738;2023-08-07T11:48:31;10.18;;;1.52;;
61391;SDS011;47261;52.892;5.738;2023-08-07T11:51:00;7.32;;;1.30;;
61391;SDS011;47261;52.892;5.738;2023-08-07T11:53:27;11.25;;;1.95;;
61391;SDS011;47261;52.892;5.738;2023-08-07T11:55:55;5.00;;;1.23;;
61391;SDS011;47261;52.892;5.738;2023-08-07T12:01:21;8.15;;;1.40;;
61391;SDS011;47261;52.892;5.738;2023-08-07T12:03:57;5.95;;;1.10;;
61391;SDS011;47261;52.892;5.738;2023-08-07T12:06:34;7.28;;;1.05;;
61391;SDS011;47261;52.892;5.738;2023-08-07T12:09:01;6.15;;;1.10;;
61391;SDS011;47261;52.892;5.738;2023-08-07T12:11:28;8.80;;;1.17;;
61391;SDS011;47261;52.892;5.738;2023-08-07T12:13:54;5.05;;;1.13;;
61391;SDS011;47261;52.892;5.738;2023-08-07T12:16:20;4.30;;;1.10;;
61391;SDS011;47261;52.892;5.738;2023-08-07T12:18:50;9.77;;;1.20;;
61391;SDS011;47261;52.892;5.738;2023-08-07T12:21:17;5.15;;;1.05;;
61391;SDS011;47261;52.892;5.738;2023-08-07T12:23:44;8.82;;;1.50;;
61391;SDS011;47261;52.892;5.738;2023-08-07T12:26:12;7.05;;;1.33;;
61391;SDS011;47261;52.892;5.738;2023-08-07T12:28:38;6.30;;;1.57;;
61391;SDS011;47261;52.892;5.738;2023-08-07T12:31:04;6.72;;;1.13;;
61391;SDS011;47261;52.892;5.738;2023-08-07T12:33:30;4.97;;;1.13;;
61391;SDS011;47261;52.892;5.738;2023-08-07T12:35:55;6.47;;;1.52;;
61391;SDS011;47261;52.892;5.738;2023-08-07T12:38:21;7.00;;;1.50;;
61391;SDS011;47261;52.892;5.738;2023-08-07T12:40:47;6.40;;;1.50;;
61391;SDS011;47261;52.892;5.738;2023-08-07T12:43:13;11.77;;;2.10;;
61391;SDS011;47261;52.892;5.738;2023-08-07T12:45:38;7.03;;;1.70;;
61391;SDS011;47261;52.892;5.738;2023-08-07T12:48:04;8.23;;;1.90;;
61391;SDS011;47261;52.892;5.738;2023-08-07T12:50:30;5.83;;;1.30;;
61391;SDS011;47261;52.892;5.738;2023-08-07T12:52:56;6.22;;;1.60;;
61391;SDS011;47261;52.892;5.738;2023-08-07T12:55:22;7.28;;;1.40;;
61391;SDS011;47261;52.892;5.738;2023-08-07T12:57:48;6.60;;;1.40;;
61391;SDS011;47261;52.892;5.738;2023-08-07T13:00:14;3.97;;;1.38;;
61391;SDS011;47261;52.892;5.738;2023-08-07T13:02:41;7.05;;;1.50;;
61391;SDS011;47261;52.892;5.738;2023-08-07T13:05:07;6.55;;;1.45;;
61391;SDS011;47261;52.892;5.738;2023-08-07T13:07:37;5.22;;;1.55;;
61391;SDS011;47261;52.892;5.738;2023-08-07T13:10:04;5.10;;;1.00;;
61391;SDS011;47261;52.892;5.738;2023-08-07T13:12:33;6.40;;;1.10;;
61391;SDS011;47261;52.892;5.738;2023-08-07T13:15:03;7.82;;;1.58;;
61391;SDS011;47261;52.892;5.738;2023-08-07T13:17:30;6.68;;;1.40;;
61391;SDS011;47261;52.892;5.738;2023-08-07T13:19:57;6.07;;;1.50;;
61391;SDS011;47261;52.892;5.738;2023-08-07T13:22:24;9.83;;;1.57;;
61391;SDS011;47261;52.892;5.738;2023-08-07T13:24:50;6.93;;;2.10;;
61391;SDS011;47261;52.892;5.738;2023-08-07T13:27:16;9.95;;;2.22;;
61391;SDS011;47261;52.892;5.738;2023-08-07T13:29:41;10.30;;;1.23;;
61391;SDS011;47261;52.892;5.738;2023-08-07T13:32:07;3.67;;;1.02;;
61391;SDS011;47261;52.892;5.738;2023-08-07T13:34:36;5.13;;;1.23;;
61391;SDS011;47261;52.892;5.738;2023-08-07T13:37:02;5.22;;;1.35;;
61391;SDS011;47261;52.892;5.738;2023-08-07T13:39:31;4.75;;;1.02;;
61391;SDS011;47261;52.892;5.738;2023-08-07T13:41:57;5.05;;;1.48;;
61391;SDS011;47261;52.892;5.738;2023-08-07T13:44:24;8.47;;;1.30;;
61391;SDS011;47261;52.892;5.738;2023-08-07T13:46:50;12.88;;;1.60;;
61391;SDS011;47261;52.892;5.738;2023-08-07T13:49:16;7.17;;;1.23;;
61391;SDS011;47261;52.892;5.738;2023-08-07T13:51:42;6.77;;;1.50;;
61391;SDS011;47261;52.892;5.738;2023-08-07T13:54:07;12.63;;;1.90;;
61391;SDS011;47261;52.892;5.738;2023-08-07T13:56:33;6.57;;;1.50;;
61391;SDS011;47261;52.892;5.738;2023-08-07T13:58:59;10.82;;;1.92;;
61391;SDS011;47261;52.892;5.738;2023-08-07T14:01:25;10.83;;;2.00;;
61391;SDS011;47261;52.892;5.738;2023-08-07T14:03:51;9.40;;;2.00;;
61391;SDS011;47261;52.892;5.738;2023-08-07T14:06:17;7.40;;;1.83;;
61391;SDS011;47261;52.892;5.738;2023-08-07T14:08:43;5.60;;;1.00;;
61391;SDS011;47261;52.892;5.738;2023-08-07T14:11:08;9.60;;;1.47;;
61391;SDS011;47261;52.892;5.738;2023-08-07T14:13:34;8.20;;;1.20;;
61391;SDS011;47261;52.892;5.738;2023-08-07T14:16:00;7.20;;;1.40;;
61391;SDS011;47261;52.892;5.738;2023-08-07T14:18:25;3.47;;;0.83;;
61391;SDS011;47261;52.892;5.738;2023-08-07T14:20:52;4.95;;;1.30;;
61391;SDS011;47261;52.892;5.738;2023-08-07T14:23:17;5.40;;;1.00;;
61391;SDS011;47261;52.892;5.738;2023-08-07T14:25:44;7.68;;;1.50;;
61391;SDS011;47261;52.892;5.738;2023-08-07T14:28:10;3.70;;;1.10;;
61391;SDS011;47261;52.892;5.738;2023-08-07T14:30:35;5.27;;;1.00;;
61391;SDS011;47261;52.892;5.738;2023-08-07T14:33:01;6.70;;;1.13;;
61391;SDS011;47261;52.892;5.738;2023-08-07T14:35:27;5.23;;;0.80;;
61391;SDS011;47261;52.892;5.738;2023-08-07T14:37:52;5.32;;;0.95;;
61391;SDS011;47261;52.892;5.738;2023-08-07T14:40:18;4.87;;;1.00;;
61391;SDS011;47261;52.892;5.738;2023-08-07T14:42:44;15.88;;;1.75;;
61391;SDS011;47261;52.892;5.738;2023-08-07T14:45:10;5.03;;;1.20;;